Terminal Aerodrome Forecast
Issued by NWS

Home | Current Version | Previous Version | Text Only | Print | Product List | Glossary On
Versions: 1 2 3 4 5 6 7 8 9 10 11 12 13 14 15 16
000
FTUS44 KLZK 101100 RRA
TAFPBF
TAF
KPBF 101140Z 1012/1112 VRB03KT P6SM BKN250
      TEMPO 1012/1014 5SM BR
     FM101500 10005KT P6SM FEW120 BKN250
     FM101800 12006KT P6SM VCTS SCT050CB BKN250
     FM110100 VRB03KT P6SM BKN250=

USA.gov is the U.S. government's official web portal to all federal, state and local government web resources and services.